createdAt,value
2023-02-08T00:00:47.748Z,29.17
2023-02-08T00:03:14.524Z,29.17
2023-02-08T00:05:41.633Z,30.13
2023-02-08T00:08:08.570Z,25.17
2023-02-08T00:10:35.701Z,26.63
2023-02-08T00:13:02.601Z,25.57
2023-02-08T00:15:29.433Z,25.77
2023-02-08T00:17:56.204Z,25.10
2023-02-08T00:20:23.040Z,27.73
2023-02-08T00:22:50.509Z,25.80
2023-02-08T00:25:18.674Z,25.07
2023-02-08T00:27:45.463Z,26.30
2023-02-08T00:30:12.501Z,25.53
2023-02-08T00:32:39.404Z,28.00
2023-02-08T00:35:06.613Z,25.63
2023-02-08T00:37:33.419Z,28.40
2023-02-08T00:40:02.583Z,25.43
2023-02-08T00:42:30.289Z,31.17
2023-02-08T00:44:57.956Z,27.70
2023-02-08T00:47:25.467Z,26.47
2023-02-08T00:49:52.261Z,26.97
2023-02-08T00:52:19.152Z,29.57
2023-02-08T00:54:53.165Z,29.37
2023-02-08T00:57:32.783Z,25.07
2023-02-08T01:00:00.207Z,29.00
2023-02-08T01:02:27.255Z,28.20
2023-02-08T01:04:54.110Z,22.80
2023-02-08T01:07:21.011Z,26.80
2023-02-08T01:09:47.808Z,29.57
2023-02-08T01:12:14.740Z,29.77
2023-02-08T01:14:41.806Z,28.47
2023-02-08T01:17:08.761Z,25.40
2023-02-08T01:19:35.598Z,27.03
2023-02-08T01:22:03.135Z,23.33
2023-02-08T01:24:29.943Z,26.63
2023-02-08T01:26:56.696Z,29.17
2023-02-08T01:29:23.478Z,26.87
2023-02-08T01:31:50.306Z,27.67
2023-02-08T01:34:17.137Z,32.13
2023-02-08T01:36:43.921Z,30.27
2023-02-08T01:39:11.722Z,26.43
2023-02-08T01:41:43.997Z,30.27
2023-02-08T01:44:13.699Z,28.50
2023-02-08T01:46:48.774Z,26.70
2023-02-08T01:49:24.192Z,25.70
2023-02-08T01:52:03.578Z,24.67
2023-02-08T01:54:36.434Z,30.10
2023-02-08T01:57:03.789Z,29.57
2023-02-08T01:59:42.615Z,29.20
2023-02-08T02:02:13.613Z,30.37
2023-02-08T02:04:40.684Z,28.93
2023-02-08T02:07:07.611Z,28.73
2023-02-08T02:09:44.888Z,31.40
2023-02-08T02:12:12.405Z,26.33
2023-02-08T02:14:39.795Z,26.60
2023-02-08T02:17:10.933Z,26.63
2023-02-08T02:20:05.964Z,29.37
2023-02-08T02:22:32.739Z,25.07
2023-02-08T02:25:18.209Z,26.07
2023-02-08T02:28:13.492Z,28.87
2023-02-08T02:30:55.319Z,27.33
2023-02-08T02:33:34.305Z,27.07
2023-02-08T02:36:27.638Z,32.33
2023-02-08T02:39:06.160Z,33.70
2023-02-08T02:42:16.863Z,29.67
2023-02-08T02:44:56.997Z,33.67
2023-02-08T02:47:39.033Z,32.77
2023-02-08T02:50:29.287Z,34.63
2023-02-08T02:53:05.066Z,34.10
2023-02-08T02:55:36.977Z,34.07
2023-02-08T02:58:05.346Z,32.83
2023-02-08T03:00:33.829Z,30.93
2023-02-08T03:03:00.757Z,34.27
2023-02-08T03:05:29.060Z,32.10
2023-02-08T03:08:32.779Z,29.30
2023-02-08T03:11:05.987Z,32.53
2023-02-08T03:14:08.205Z,33.63
2023-02-08T03:16:57.255Z,32.30
2023-02-08T03:19:39.556Z,34.70
2023-02-08T03:22:12.829Z,34.67
2023-02-08T03:24:55.603Z,35.03
2023-02-08T03:27:34.455Z,34.33
2023-02-08T03:30:22.987Z,29.77
2023-02-08T03:33:02.793Z,31.87
2023-02-08T03:35:29.526Z,33.93
2023-02-08T03:38:07.734Z,31.30
2023-02-08T03:40:39.328Z,30.03
2023-02-08T03:43:16.503Z,29.60
2023-02-08T03:45:50.025Z,33.50
2023-02-08T03:48:19.950Z,34.43
2023-02-08T03:50:50.686Z,31.20
2023-02-08T03:53:22.122Z,32.17
2023-02-08T03:55:58.507Z,33.10
2023-02-08T03:58:34.394Z,30.97
2023-02-08T04:01:27.305Z,29.00
2023-02-08T04:03:54.977Z,31.47
2023-02-08T04:06:22.151Z,31.00
2023-02-08T04:08:50.614Z,28.43
2023-02-08T04:11:17.606Z,27.07
2023-02-08T04:13:44.391Z,30.67
2023-02-08T04:16:14.609Z,31.80
2023-02-08T04:18:41.476Z,34.80
2023-02-08T04:21:08.511Z,34.03
2023-02-08T04:23:37.883Z,34.47
2023-02-08T04:26:05.036Z,34.83
2023-02-08T04:28:31.903Z,32.67
2023-02-08T04:30:58.872Z,31.27
2023-02-08T04:33:27.094Z,34.33
2023-02-08T04:35:53.882Z,31.73
2023-02-08T04:38:20.714Z,36.50
2023-02-08T04:40:47.558Z,36.97
2023-02-08T04:43:14.353Z,30.73
2023-02-08T04:45:41.163Z,33.20
2023-02-08T04:48:07.941Z,32.90
2023-02-08T04:50:35.473Z,34.57
2023-02-08T04:53:02.293Z,32.40
2023-02-08T04:55:29.039Z,37.53
2023-02-08T04:57:55.788Z,36.70
2023-02-08T05:00:22.722Z,35.67
2023-02-08T05:02:55.660Z,35.23
2023-02-08T05:05:22.844Z,36.73
2023-02-08T05:07:49.682Z,39.67
2023-02-08T05:10:16.923Z,37.93
2023-02-08T05:12:45.903Z,36.40
2023-02-08T05:15:12.997Z,39.37
2023-02-08T05:17:39.772Z,38.80
2023-02-08T05:20:07.304Z,35.63
2023-02-08T05:22:34.383Z,38.00
2023-02-08T05:25:01.417Z,37.43
2023-02-08T05:27:28.564Z,40.37
2023-02-08T05:29:56.735Z,38.07
2023-02-08T05:32:24.398Z,42.00
2023-02-08T05:34:51.246Z,39.00
2023-02-08T05:37:18.012Z,40.93
2023-02-08T05:39:44.785Z,37.83
2023-02-08T05:42:11.558Z,42.57
2023-02-08T05:44:38.526Z,39.93
2023-02-08T05:47:05.475Z,42.83
2023-02-08T05:49:32.299Z,44.57
2023-02-08T05:51:59.082Z,43.27
2023-02-08T05:54:25.927Z,42.80
2023-02-08T05:56:52.683Z,45.20
2023-02-08T05:59:20.511Z,41.63
2023-02-08T06:01:47.373Z,41.90
2023-02-08T06:04:14.202Z,44.47
2023-02-08T06:06:41.043Z,45.87
2023-02-08T06:09:07.846Z,47.27
2023-02-08T06:11:36.184Z,45.23
2023-02-08T06:14:03.397Z,44.53
2023-02-08T06:16:30.292Z,45.83
2023-02-08T06:18:57.717Z,42.83
2023-02-08T06:21:24.798Z,44.37
2023-02-08T06:23:51.711Z,43.83
2023-02-08T06:26:18.589Z,45.80
2023-02-08T06:28:45.455Z,50.73
2023-02-08T06:31:12.247Z,45.60
2023-02-08T06:33:39.038Z,48.47
2023-02-08T06:36:06.580Z,48.57
2023-02-08T06:38:33.364Z,49.63
2023-02-08T06:41:00.185Z,47.20
2023-02-08T06:43:27.015Z,41.73
2023-02-08T06:45:53.812Z,41.63
2023-02-08T06:48:20.614Z,44.67
2023-02-08T06:50:47.409Z,44.77
2023-02-08T06:53:14.945Z,45.20
2023-02-08T06:55:41.772Z,45.50
2023-02-08T06:58:09.995Z,45.80
2023-02-08T07:00:39.334Z,43.00
2023-02-08T07:03:06.229Z,38.77
2023-02-08T07:05:36.536Z,37.33
2023-02-08T07:08:03.886Z,34.47
2023-02-08T07:10:30.749Z,33.00
2023-02-08T07:12:57.584Z,32.23
2023-02-08T07:15:24.485Z,37.70
2023-02-08T07:17:51.259Z,35.90
2023-02-08T07:20:18.336Z,31.90
2023-02-08T07:22:45.138Z,35.37
2023-02-08T07:25:12.027Z,32.80
2023-02-08T07:27:38.822Z,32.40
2023-02-08T07:30:08.249Z,32.60
2023-02-08T07:32:35.544Z,33.77
2023-02-08T07:35:02.468Z,31.67
2023-02-08T07:37:29.431Z,30.53
2023-02-08T07:39:56.766Z,30.77
2023-02-08T07:42:23.737Z,27.73
2023-02-08T07:44:50.813Z,33.83
2023-02-08T07:47:19.655Z,31.17
2023-02-08T07:49:46.512Z,33.50
2023-02-08T07:52:13.268Z,34.33
2023-02-08T07:54:40.092Z,30.27
2023-02-08T07:57:07.041Z,34.87
2023-02-08T07:59:33.901Z,33.67
2023-02-08T08:02:00.730Z,33.10
2023-02-08T08:04:27.672Z,35.83
2023-02-08T08:06:57.794Z,35.40
2023-02-08T08:09:24.630Z,33.07
2023-02-08T08:11:51.520Z,31.07
2023-02-08T08:14:18.384Z,36.87
2023-02-08T08:16:45.227Z,32.60
2023-02-08T08:19:12.089Z,33.77
2023-02-08T08:21:39.349Z,36.10
2023-02-08T08:24:06.348Z,31.93
2023-02-08T08:26:33.193Z,31.43
2023-02-08T08:29:00.054Z,31.77
2023-02-08T08:31:27.078Z,31.17
2023-02-08T08:33:55.487Z,31.50
2023-02-08T08:36:22.744Z,33.77
2023-02-08T08:38:49.564Z,34.37
2023-02-08T08:41:22.421Z,30.80
2023-02-08T08:43:49.617Z,36.90
2023-02-08T08:46:16.814Z,39.83
2023-02-08T08:48:43.845Z,31.20
2023-02-08T08:51:10.922Z,35.83
2023-02-08T08:53:37.811Z,29.47
2023-02-08T08:56:05.675Z,31.63
2023-02-08T08:58:32.910Z,32.90
2023-02-08T09:01:00.538Z,30.50
2023-02-08T09:03:29.191Z,31.33
2023-02-08T09:05:56.667Z,33.17
2023-02-08T09:08:23.539Z,30.13
2023-02-08T09:10:50.486Z,29.40
2023-02-08T09:13:27.531Z,30.53
2023-02-08T09:15:54.698Z,28.07
2023-02-08T09:18:21.571Z,26.37
2023-02-08T09:20:48.407Z,30.40
2023-02-08T09:23:15.260Z,28.03
2023-02-08T09:25:42.169Z,28.13
2023-02-08T09:28:09.156Z,28.67
2023-02-08T09:30:35.983Z,26.13
2023-02-08T09:33:02.856Z,29.20
2023-02-08T09:35:29.842Z,26.63
2023-02-08T09:37:58.321Z,27.33
2023-02-08T09:40:32.221Z,24.67
2023-02-08T09:43:21.957Z,23.47
2023-02-08T09:46:00.163Z,17.87
2023-02-08T09:48:41.073Z,20.77
2023-02-08T09:51:14.311Z,19.20
2023-02-08T09:53:47.498Z,22.43
2023-02-08T09:56:16.964Z,15.33
2023-02-08T09:58:45.837Z,16.73
2023-02-08T10:01:28.213Z,16.20
2023-02-08T10:04:00.981Z,12.57
2023-02-08T10:06:29.111Z,15.47
2023-02-08T10:08:56.719Z,14.80
2023-02-08T10:11:58.452Z,13.40
2023-02-08T10:14:49.711Z,12.63
2023-02-08T10:17:28.546Z,14.30
2023-02-08T10:20:04.269Z,11.87
2023-02-08T10:22:55.864Z,9.93
2023-02-08T10:25:34.113Z,12.13
2023-02-08T10:28:09.837Z,8.43
2023-02-08T10:30:45.944Z,9.97
2023-02-08T10:33:26.724Z,7.50
2023-02-08T10:35:54.923Z,8.33
2023-02-08T10:38:44.078Z,6.90
2023-02-08T10:41:20.238Z,6.07
2023-02-08T10:43:56.130Z,7.10
2023-02-08T10:46:40.893Z,5.97
2023-02-08T10:49:29.795Z,5.80
2023-02-08T10:51:56.599Z,7.60
2023-02-08T10:54:23.458Z,4.60
2023-02-08T10:57:00.983Z,4.33
2023-02-08T10:59:35.668Z,4.73
2023-02-08T11:02:02.718Z,5.23
2023-02-08T11:04:29.596Z,5.40
2023-02-08T11:06:56.811Z,4.37
2023-02-08T11:09:25.152Z,5.07
2023-02-08T11:11:53.030Z,5.63
2023-02-08T11:14:51.388Z,5.10
2023-02-08T11:17:34.097Z,4.57
2023-02-08T11:20:01.359Z,5.03
2023-02-08T11:22:34.509Z,4.70
2023-02-08T11:25:33.119Z,4.10
2023-02-08T11:28:00.981Z,4.83
2023-02-08T11:30:28.158Z,4.97
2023-02-08T11:33:15.562Z,7.37
2023-02-08T11:35:42.877Z,5.30
2023-02-08T11:38:19.699Z,5.60
2023-02-08T11:40:46.608Z,7.30
2023-02-08T11:43:28.649Z,7.37
2023-02-08T11:45:57.467Z,7.73
2023-02-08T11:48:41.210Z,7.37
2023-02-08T11:51:09.908Z,6.63
2023-02-08T11:53:43.487Z,5.80
2023-02-08T11:56:24.629Z,6.63
2023-02-08T11:59:12.682Z,7.00
2023-02-08T12:01:42.163Z,8.10
2023-02-08T12:04:12.098Z,7.93
2023-02-08T12:06:45.117Z,6.53
2023-02-08T12:09:43.118Z,7.73
2023-02-08T12:12:13.765Z,8.47
2023-02-08T12:14:52.038Z,9.82
2023-02-08T12:17:24.331Z,10.52
2023-02-08T12:20:23.254Z,8.27
2023-02-08T12:23:20.964Z,8.95
2023-02-08T12:25:56.629Z,7.00
2023-02-08T12:28:54.001Z,6.40
2023-02-08T12:31:56.056Z,6.80
2023-02-08T12:34:49.529Z,8.13
2023-02-08T12:37:53.133Z,8.40
2023-02-08T12:40:49.748Z,6.23
2023-02-08T12:43:37.688Z,8.50
2023-02-08T12:46:26.351Z,7.93
2023-02-08T12:49:34.788Z,6.93
2023-02-08T12:52:13.674Z,7.17
2023-02-08T12:54:58.431Z,7.00
2023-02-08T12:57:27.406Z,7.50
2023-02-08T12:59:57.954Z,7.80
2023-02-08T13:02:44.450Z,7.87
2023-02-08T13:05:18.906Z,6.40
2023-02-08T13:07:49.325Z,9.97
2023-02-08T13:10:41.887Z,8.80
2023-02-08T13:13:17.927Z,9.70
2023-02-08T13:16:13.063Z,7.80
2023-02-08T13:19:14.787Z,8.90
2023-02-08T13:21:43.794Z,7.93
2023-02-08T13:24:36.570Z,7.70
2023-02-08T13:27:07.072Z,8.87
2023-02-08T13:29:38.019Z,7.23
2023-02-08T13:32:16.537Z,7.67
2023-02-08T13:34:54.368Z,9.37
2023-02-08T13:37:30.183Z,7.63
2023-02-08T13:40:17.662Z,8.40
2023-02-08T13:42:52.088Z,8.87
2023-02-08T13:45:45.702Z,8.03
2023-02-08T13:48:17.665Z,8.93
2023-02-08T13:50:53.923Z,8.17
2023-02-08T13:53:41.522Z,7.53
2023-02-08T13:56:12.016Z,9.10
2023-02-08T13:58:47.936Z,8.27
2023-02-08T14:01:33.039Z,8.37
2023-02-08T14:04:17.504Z,9.00
2023-02-08T14:06:44.815Z,9.33
2023-02-08T14:09:51.868Z,11.35
2023-02-08T14:15:15.523Z,7.83
2023-02-08T14:17:48.935Z,9.63
2023-02-08T14:20:41.107Z,11.23
2023-02-08T14:26:46.301Z,9.90
2023-02-08T14:29:24.208Z,10.53
2023-02-08T14:31:56.829Z,12.68
2023-02-08T14:34:35.310Z,10.27
2023-02-08T14:37:24.022Z,11.90
2023-02-08T14:43:19.954Z,10.63
2023-02-08T14:45:48.755Z,10.87
2023-02-08T14:48:30.676Z,10.20
2023-02-08T14:51:11.811Z,13.73
2023-02-08T14:54:04.060Z,12.23
2023-02-08T14:56:54.316Z,10.40
2023-02-08T14:59:26.715Z,13.90
2023-02-08T15:01:59.573Z,9.97
2023-02-08T15:04:27.576Z,12.88
2023-02-08T15:07:36.275Z,12.10
2023-02-08T15:10:06.743Z,10.73
2023-02-08T15:12:37.492Z,14.35
2023-02-08T15:15:05.983Z,12.93
2023-02-08T15:17:46.434Z,14.03
2023-02-08T15:20:28.854Z,14.70
2023-02-08T15:23:07.233Z,13.83
2023-02-08T15:25:37.239Z,13.03
2023-02-08T15:28:18.226Z,14.30
2023-02-08T15:30:46.589Z,12.37
2023-02-08T15:33:18.045Z,13.80
2023-02-08T15:35:46.042Z,16.08
2023-02-08T15:38:20.090Z,16.13
2023-02-08T15:41:13.306Z,15.47
2023-02-08T15:43:41.674Z,18.07
2023-02-08T15:46:24.780Z,14.00
2023-02-08T15:48:52.697Z,18.23
2023-02-08T15:51:23.114Z,16.03
2023-02-08T15:53:53.330Z,14.20
2023-02-08T15:56:37.803Z,16.33
2023-02-08T15:59:08.570Z,18.57
2023-02-08T16:01:35.496Z,16.47
2023-02-08T16:04:12.542Z,19.40
2023-02-08T16:06:51.963Z,16.53
2023-02-08T16:09:27.488Z,16.90
2023-02-08T16:11:58.337Z,17.00
2023-02-08T16:14:29.119Z,15.90
2023-02-08T16:16:58.388Z,16.70
2023-02-08T16:19:33.551Z,15.77
2023-02-08T16:22:12.697Z,16.00
2023-02-08T16:24:39.540Z,16.33
2023-02-08T16:27:26.242Z,17.63
2023-02-08T16:29:53.719Z,16.43
2023-02-08T16:32:29.513Z,17.47
2023-02-08T16:34:57.285Z,13.60
2023-02-08T16:37:29.812Z,14.67
2023-02-08T16:40:27.112Z,13.80
2023-02-08T16:43:22.889Z,14.20
2023-02-08T16:46:11.800Z,16.13
2023-02-08T16:48:44.765Z,15.97
2023-02-08T16:51:16.741Z,17.73
2023-02-08T16:53:43.878Z,15.20
2023-02-08T16:56:11.522Z,15.80
2023-02-08T16:58:38.716Z,16.77
2023-02-08T17:01:06.363Z,13.13
2023-02-08T17:03:35.852Z,14.93
2023-02-08T17:06:02.713Z,15.10
2023-02-08T17:08:29.572Z,14.90
2023-02-08T17:10:59.150Z,19.10
2023-02-08T17:13:28.935Z,16.08
2023-02-08T17:15:55.982Z,17.63
2023-02-08T17:18:22.811Z,16.53
2023-02-08T17:20:49.734Z,17.43
2023-02-08T17:23:16.625Z,18.57
2023-02-08T17:25:43.963Z,18.67
2023-02-08T17:28:19.499Z,17.07
2023-02-08T17:30:47.502Z,16.10
2023-02-08T17:33:23.548Z,19.40
2023-02-08T17:35:51.957Z,23.17
2023-02-08T17:38:20.521Z,18.13
2023-02-08T17:40:47.601Z,23.80
2023-02-08T17:43:14.983Z,25.27
2023-02-08T17:45:44.044Z,20.33
2023-02-08T17:48:13.526Z,24.37
2023-02-08T17:50:43.567Z,22.97
2023-02-08T17:53:10.776Z,23.53
2023-02-08T17:55:37.646Z,24.73
2023-02-08T17:58:04.413Z,24.37
2023-02-08T18:00:31.250Z,27.10
2023-02-08T18:03:00.948Z,27.47
2023-02-08T18:05:28.714Z,27.37
2023-02-08T18:07:56.845Z,27.50
2023-02-08T18:10:24.721Z,27.93
2023-02-08T18:12:51.662Z,28.57
2023-02-08T18:15:21.328Z,25.60
2023-02-08T18:17:50.298Z,25.47
2023-02-08T18:20:17.842Z,24.17
2023-02-08T18:22:45.039Z,22.70
2023-02-08T18:25:12.921Z,25.07
2023-02-08T18:27:40.085Z,25.77
2023-02-08T18:30:08.226Z,24.23
2023-02-08T18:32:35.167Z,22.67
2023-02-08T18:35:04.366Z,22.73
2023-02-08T18:37:32.272Z,24.53
2023-02-08T18:40:00.066Z,21.17
2023-02-08T18:42:27.205Z,20.90
2023-02-08T18:44:54.127Z,22.10
2023-02-08T18:47:21.033Z,25.67
2023-02-08T18:49:47.920Z,22.17
2023-02-08T18:52:17.534Z,21.50
2023-02-08T18:54:44.381Z,24.10
2023-02-08T18:57:11.444Z,23.83
2023-02-08T18:59:39.080Z,19.03
2023-02-08T19:02:07.877Z,22.43
2023-02-08T19:04:38.620Z,21.10
2023-02-08T19:07:06.873Z,19.90
2023-02-08T19:09:38.041Z,19.33
2023-02-08T19:12:05.734Z,19.33
2023-02-08T19:14:32.603Z,21.63
2023-02-08T19:16:59.674Z,21.43
2023-02-08T19:19:26.526Z,23.97
2023-02-08T19:21:53.425Z,23.23
2023-02-08T19:24:20.265Z,28.53
2023-02-08T19:26:47.479Z,32.57
2023-02-08T19:29:17.012Z,34.03
2023-02-08T19:31:45.257Z,37.13
2023-02-08T19:34:12.985Z,38.93
2023-02-08T19:36:46.520Z,37.17
2023-02-08T19:39:16.374Z,36.30
2023-02-08T19:41:47.624Z,33.13
2023-02-08T19:44:17.899Z,35.20
2023-02-08T19:46:50.335Z,32.83
2023-02-08T19:49:17.603Z,35.73
2023-02-08T19:51:44.787Z,43.03
2023-02-08T19:54:14.085Z,38.50
2023-02-08T19:56:41.724Z,37.93
2023-02-08T19:59:19.349Z,44.40
2023-02-08T20:01:46.650Z,38.97
2023-02-08T20:04:13.869Z,40.23
2023-02-08T20:06:41.383Z,41.90
2023-02-08T20:09:08.854Z,40.80
2023-02-08T20:11:51.209Z,40.40
2023-02-08T20:14:23.788Z,41.60
2023-02-08T20:16:50.775Z,38.30
2023-02-08T20:19:17.721Z,43.63
2023-02-08T20:21:45.389Z,46.43
2023-02-08T20:24:12.659Z,43.90
2023-02-08T20:26:41.511Z,43.20
2023-02-08T20:29:09.057Z,41.80
2023-02-08T20:31:37.543Z,41.37
2023-02-08T20:34:07.910Z,37.60
2023-02-08T20:36:40.976Z,43.20
2023-02-08T20:39:11.092Z,38.50
2023-02-08T20:41:38.531Z,41.97
2023-02-08T20:44:05.764Z,44.77
2023-02-08T20:46:35.219Z,40.70
2023-02-08T20:49:03.946Z,42.27
2023-02-08T20:51:31.322Z,40.33
2023-02-08T20:54:00.049Z,39.23
2023-02-08T20:56:30.170Z,43.97
2023-02-08T20:58:57.238Z,40.63
2023-02-08T21:01:27.148Z,41.80
2023-02-08T21:03:59.404Z,41.43
2023-02-08T21:06:35.480Z,44.40
2023-02-08T21:09:08.199Z,38.40
2023-02-08T21:11:35.682Z,41.63
2023-02-08T21:14:04.030Z,43.90
2023-02-08T21:16:31.420Z,44.57
2023-02-08T21:18:58.890Z,46.17
2023-02-08T21:21:27.804Z,43.27
2023-02-08T21:23:58.941Z,43.43
2023-02-08T21:26:26.842Z,48.80
2023-02-08T21:28:55.977Z,47.73
2023-02-08T21:31:28.591Z,46.03
2023-02-08T21:33:55.549Z,46.40
2023-02-08T21:36:24.103Z,47.57
2023-02-08T21:38:51.669Z,51.80
2023-02-08T21:41:23.515Z,49.03
2023-02-08T21:43:56.115Z,54.80
2023-02-08T21:46:28.495Z,47.57
2023-02-08T21:49:16.129Z,52.47
2023-02-08T21:52:02.472Z,53.63
2023-02-08T21:54:31.490Z,49.73
2023-02-08T21:57:00.186Z,52.60
2023-02-08T21:59:28.335Z,51.43
2023-02-08T22:01:56.093Z,50.93
2023-02-08T22:04:23.400Z,53.57
2023-02-08T22:06:50.344Z,48.57
2023-02-08T22:09:18.212Z,52.23
2023-02-08T22:11:45.528Z,59.50
2023-02-08T22:14:12.951Z,59.53
2023-02-08T22:16:40.393Z,73.00
2023-02-08T22:19:07.875Z,78.00
2023-02-08T22:21:34.777Z,75.97
2023-02-08T22:24:01.640Z,72.83
2023-02-08T22:26:28.762Z,75.90
2023-02-08T22:28:55.663Z,71.23
2023-02-08T22:31:22.607Z,73.03
2023-02-08T22:33:53.160Z,72.70
2023-02-08T22:36:20.538Z,67.93
2023-02-08T22:38:47.455Z,75.20
2023-02-08T22:41:16.343Z,73.03
2023-02-08T22:43:45.033Z,63.90
2023-02-08T22:46:12.635Z,62.77
2023-02-08T22:48:39.530Z,63.23
2023-02-08T22:51:08.644Z,51.33
2023-02-08T22:53:35.459Z,51.40
2023-02-08T22:56:02.679Z,52.27
2023-02-08T22:58:29.781Z,54.63
2023-02-08T23:00:56.770Z,51.70
2023-02-08T23:03:23.679Z,47.70
2023-02-08T23:05:51.910Z,50.17
2023-02-08T23:08:21.718Z,47.27
2023-02-08T23:10:48.834Z,49.97
2023-02-08T23:13:16.312Z,50.03
2023-02-08T23:15:44.937Z,47.13
2023-02-08T23:18:12.576Z,46.97
2023-02-08T23:20:40.539Z,48.57
2023-02-08T23:23:08.197Z,48.13
2023-02-08T23:25:38.194Z,49.30
2023-02-08T23:28:05.249Z,49.33
2023-02-08T23:30:32.176Z,44.87
2023-02-08T23:32:59.466Z,47.03
2023-02-08T23:35:26.707Z,51.43
2023-02-08T23:37:53.552Z,52.70
2023-02-08T23:40:20.429Z,45.40
2023-02-08T23:42:47.313Z,50.97
2023-02-08T23:45:14.385Z,53.60
2023-02-08T23:47:41.246Z,49.83
2023-02-08T23:50:08.697Z,47.67
2023-02-08T23:52:40.376Z,45.70
2023-02-08T23:55:07.724Z,49.70
2023-02-08T23:57:36.665Z,48.40
